createdAt,value
2023-03-18T00:01:56.425Z,99022.88
2023-03-18T00:05:13.922Z,99027.30
2023-03-18T00:08:30.095Z,99008.61
2023-03-18T00:11:46.952Z,99016.02
2023-03-18T00:15:03.164Z,99012.13
2023-03-18T00:18:19.508Z,99008.98
2023-03-18T00:21:35.779Z,99008.19
2023-03-18T00:24:53.367Z,99005.22
2023-03-18T00:28:10.065Z,99002.34
2023-03-18T00:31:26.553Z,99005.41
2023-03-18T00:34:42.859Z,99001.97
2023-03-18T00:37:59.266Z,99005.80
2023-03-18T00:41:18.740Z,98996.41
2023-03-18T00:44:35.276Z,98996.31
2023-03-18T00:47:52.441Z,98998.47
2023-03-18T00:51:12.319Z,98995.92
2023-03-18T00:54:29.160Z,98995.83
2023-03-18T00:57:46.227Z,98990.45
2023-03-18T01:01:02.247Z,98987.70
2023-03-18T01:04:18.398Z,98982.34
2023-03-18T01:07:37.228Z,98991.17
2023-03-18T01:10:53.430Z,98984.64
2023-03-18T01:14:10.105Z,98985.26
2023-03-18T01:17:26.420Z,98977.05
2023-03-18T01:20:43.317Z,98976.45
2023-03-18T01:24:01.217Z,98974.84
2023-03-18T01:27:19.306Z,98970.20
2023-03-18T01:30:36.256Z,98971.66
2023-03-18T01:33:53.284Z,98966.17
2023-03-18T01:37:10.195Z,98961.75
2023-03-18T01:40:29.421Z,98961.77
2023-03-18T01:43:49.400Z,98962.25
2023-03-18T01:47:05.564Z,98954.07
2023-03-18T01:50:25.761Z,98952.19
2023-03-18T01:53:47.161Z,98951.46
2023-03-18T01:57:04.366Z,98954.08
2023-03-18T02:00:24.182Z,98941.00
2023-03-18T02:03:41.010Z,98949.31
2023-03-18T02:06:57.719Z,98960.84
2023-03-18T02:10:19.253Z,98949.31
2023-03-18T02:13:38.041Z,98960.03
2023-03-18T02:16:59.603Z,98953.59
2023-03-18T02:20:25.308Z,98943.73
2023-03-18T02:23:48.290Z,98941.22
2023-03-18T02:27:08.886Z,98947.91
2023-03-18T02:30:32.431Z,98944.91
2023-03-18T02:33:50.573Z,98945.52
2023-03-18T02:37:08.635Z,98947.78
2023-03-18T02:40:30.160Z,98941.48
2023-03-18T02:43:46.884Z,98939.47
2023-03-18T02:47:06.795Z,98938.52
2023-03-18T02:50:22.604Z,98939.00
2023-03-18T02:53:38.984Z,98939.47
2023-03-18T02:56:55.354Z,98938.52
2023-03-18T03:00:14.383Z,98939.69
2023-03-18T03:03:32.003Z,98938.48
2023-03-18T03:06:48.981Z,98936.59
2023-03-18T03:10:06.435Z,98935.52
2023-03-18T03:13:22.946Z,98936.47
2023-03-18T03:16:43.165Z,98939.20
2023-03-18T03:19:59.174Z,98932.91
2023-03-18T03:23:18.292Z,98932.44
2023-03-18T03:26:37.202Z,98931.97
2023-03-18T03:29:54.906Z,98934.80
2023-03-18T03:33:12.103Z,98930.04
2023-03-18T03:36:29.013Z,98926.27
2023-03-18T03:39:45.408Z,98929.45
2023-03-18T03:43:01.915Z,98930.77
2023-03-18T03:46:20.029Z,98936.00
2023-03-18T03:49:36.150Z,98930.64
2023-03-18T03:52:53.721Z,98933.50
2023-03-18T03:56:12.116Z,98933.25
2023-03-18T03:59:28.960Z,98929.95
2023-03-18T04:03:05.602Z,98930.77
2023-03-18T04:06:21.675Z,98932.65
2023-03-18T04:09:39.772Z,98938.34
2023-03-18T04:12:56.855Z,98934.64
2023-03-18T04:16:15.225Z,98934.55
2023-03-18T04:19:31.613Z,98928.59
2023-03-18T04:22:47.842Z,98933.68
2023-03-18T04:26:06.129Z,98934.62
2023-03-18T04:29:23.527Z,98938.30
2023-03-18T04:32:40.148Z,98954.20
2023-03-18T04:35:57.258Z,98948.98
2023-03-18T04:39:14.116Z,98946.09
2023-03-18T04:42:30.449Z,98957.32
2023-03-18T04:45:47.037Z,98956.45
2023-03-18T04:49:03.753Z,98957.79
2023-03-18T04:52:21.071Z,98960.46
2023-03-18T04:55:37.706Z,98955.88
2023-03-18T04:58:55.667Z,98964.26
2023-03-18T05:02:13.665Z,98959.86
2023-03-18T05:05:30.688Z,98964.69
2023-03-18T05:08:47.409Z,98956.12
2023-03-18T05:12:03.689Z,98958.61
2023-03-18T05:15:24.269Z,98959.16
2023-03-18T05:18:42.141Z,98961.65
2023-03-18T05:21:58.415Z,98964.44
2023-03-18T05:25:16.927Z,98959.73
2023-03-18T05:28:34.847Z,98969.28
2023-03-18T05:31:52.583Z,98973.55
2023-03-18T05:35:09.910Z,98981.25
2023-03-18T05:38:27.609Z,98968.59
2023-03-18T05:41:44.493Z,98971.83
2023-03-18T05:45:02.968Z,98980.42
2023-03-18T05:48:19.771Z,98975.34
2023-03-18T05:51:38.553Z,98969.39
2023-03-18T05:54:56.438Z,98973.20
2023-03-18T05:58:14.582Z,98971.89
2023-03-18T06:01:31.614Z,98968.91
2023-03-18T06:04:48.544Z,98963.79
2023-03-18T06:08:05.175Z,98972.23
2023-03-18T06:11:24.081Z,98969.61
2023-03-18T06:14:40.430Z,98964.96
2023-03-18T06:17:58.281Z,98971.35
2023-03-18T06:21:16.175Z,98983.09
2023-03-18T06:24:32.591Z,98978.77
2023-03-18T06:27:48.758Z,98980.63
2023-03-18T06:31:07.027Z,98990.67
2023-03-18T06:34:23.418Z,98986.63
2023-03-18T06:37:43.576Z,98996.05
2023-03-18T06:41:02.850Z,99000.59
2023-03-18T06:44:20.599Z,99007.61
2023-03-18T06:47:37.907Z,99004.16
2023-03-18T06:50:55.497Z,99015.01
2023-03-18T06:54:11.626Z,99010.23
2023-03-18T06:57:27.949Z,99019.98
2023-03-18T07:00:46.136Z,99012.70
2023-03-18T07:04:04.031Z,99017.77
2023-03-18T07:07:21.938Z,99022.47
2023-03-18T07:10:40.389Z,99023.24
2023-03-18T07:13:58.632Z,99031.62
2023-03-18T07:17:21.196Z,99025.32
2023-03-18T07:20:37.431Z,99031.26
2023-03-18T07:23:55.565Z,99043.10
2023-03-18T07:27:14.118Z,99033.22
2023-03-18T07:30:31.294Z,99041.96
2023-03-18T07:33:50.603Z,99039.28
2023-03-18T07:37:07.880Z,99043.16
2023-03-18T07:40:25.178Z,99049.56
2023-03-18T07:43:44.394Z,99044.95
2023-03-18T07:47:00.844Z,99046.91
2023-03-18T07:50:21.809Z,99056.05
2023-03-18T07:53:42.136Z,99053.66
2023-03-18T07:56:58.931Z,99060.06
2023-03-18T08:00:19.523Z,99065.47
2023-03-18T08:03:37.942Z,99055.83
2023-03-18T08:06:54.286Z,99057.23
2023-03-18T08:10:12.702Z,99060.72
2023-03-18T08:13:29.790Z,99063.30
2023-03-18T08:16:46.412Z,99066.03
2023-03-18T08:20:02.705Z,99065.27
2023-03-18T08:23:20.165Z,99061.67
2023-03-18T08:26:36.619Z,99065.73
2023-03-18T08:29:53.198Z,99060.96
2023-03-18T08:33:09.705Z,99057.78
2023-03-18T08:36:29.598Z,99062.19
2023-03-18T08:39:45.774Z,99058.00
2023-03-18T08:43:02.408Z,99053.69
2023-03-18T08:46:18.972Z,99060.09
2023-03-18T08:49:35.632Z,99063.67
2023-03-18T08:52:54.447Z,99059.35
2023-03-18T08:56:15.417Z,99067.02
2023-03-18T08:59:31.776Z,99067.68
2023-03-18T09:02:48.626Z,99062.30
2023-03-18T09:06:05.603Z,99065.06
2023-03-18T09:09:26.301Z,99063.98
2023-03-18T09:12:40.187Z,99056.87
2023-03-18T09:15:56.493Z,99049.77
2023-03-18T09:19:13.032Z,99057.34
2023-03-18T09:22:29.610Z,99060.25
2023-03-18T09:25:46.169Z,99056.19
2023-03-18T09:29:05.253Z,99057.89
2023-03-18T09:32:21.860Z,99057.70
2023-03-18T09:35:38.660Z,99050.73
2023-03-18T09:38:54.866Z,99049.41
2023-03-18T09:42:24.548Z,99051.05
2023-03-18T09:45:47.751Z,99055.45
2023-03-18T09:49:32.174Z,99049.08
2023-03-18T09:52:56.188Z,99046.63
2023-03-18T09:56:13.386Z,99039.92
2023-03-18T09:59:34.904Z,99038.97
2023-03-18T10:02:55.345Z,99047.96
2023-03-18T10:06:20.460Z,99031.97
2023-03-18T10:09:40.319Z,99046.45
2023-03-18T10:13:01.882Z,99048.38
2023-03-18T10:16:25.120Z,99029.25
2023-03-18T10:19:42.878Z,99033.77
2023-03-18T10:23:12.300Z,99029.56
2023-03-18T10:26:36.828Z,99030.16
2023-03-18T10:29:59.270Z,99023.39
2023-03-18T10:33:22.956Z,99020.73
2023-03-18T10:36:47.528Z,99017.00
2023-03-18T10:40:11.401Z,99012.86
2023-03-18T10:43:31.243Z,99016.99
2023-03-18T10:46:50.209Z,99011.67
2023-03-18T10:50:11.625Z,99010.01
2023-03-18T10:53:32.503Z,99008.80
2023-03-18T10:56:53.630Z,99005.53
2023-03-18T11:00:12.019Z,98992.36
2023-03-18T11:03:36.429Z,99001.00
2023-03-18T11:06:58.538Z,99002.63
2023-03-18T11:10:31.355Z,99000.94
2023-03-18T11:13:53.951Z,98995.56
2023-03-18T11:17:14.901Z,98993.16
2023-03-18T11:20:41.946Z,98989.64
2023-03-18T11:24:15.773Z,98982.63
2023-03-18T11:27:46.817Z,98991.83
2023-03-18T11:31:07.272Z,98979.11
2023-03-18T11:34:28.645Z,98970.09
2023-03-18T11:37:47.015Z,98971.58
2023-03-18T11:41:13.944Z,98967.06
2023-03-18T11:44:36.907Z,98970.56
2023-03-18T11:47:54.553Z,98961.55
2023-03-18T11:51:38.844Z,98953.95
2023-03-18T11:55:31.618Z,98947.19
2023-03-18T11:59:18.554Z,98947.39
2023-03-18T12:02:58.665Z,98942.45
2023-03-18T12:06:29.267Z,98938.95
2023-03-18T12:09:50.587Z,98945.11
2023-03-18T12:13:38.443Z,98928.64
2023-03-18T12:17:09.859Z,98922.88
2023-03-18T12:20:56.188Z,98925.34
2023-03-18T12:24:40.804Z,98923.06
2023-03-18T12:28:01.915Z,98919.77
2023-03-18T12:31:54.361Z,98923.45
2023-03-18T12:35:36.571Z,98922.63
2023-03-18T12:39:47.091Z,98913.58
2023-03-18T12:43:46.234Z,98909.89
2023-03-18T12:47:10.943Z,98912.55
2023-03-18T12:50:32.682Z,98907.39
2023-03-18T12:53:55.461Z,98905.11
2023-03-18T12:57:18.304Z,98901.00
2023-03-18T13:00:39.150Z,98895.66
2023-03-18T13:04:05.343Z,98894.05
2023-03-18T13:07:27.123Z,98888.72
2023-03-18T13:10:45.075Z,98883.39
2023-03-18T13:14:06.515Z,98879.45
2023-03-18T13:17:27.178Z,98878.81
2023-03-18T13:20:46.275Z,98870.02
2023-03-18T13:24:27.277Z,98872.69
2023-03-18T13:27:58.828Z,98871.24
2023-03-18T13:31:28.610Z,98876.19
2023-03-18T13:35:31.269Z,98873.95
2023-03-18T13:39:34.679Z,98865.53
2023-03-18T13:42:54.766Z,98862.44
2023-03-18T13:46:18.300Z,98852.80
2023-03-18T13:49:39.380Z,98864.27
2023-03-18T13:52:58.734Z,98862.40
2023-03-18T13:56:33.713Z,98854.61
2023-03-18T13:59:57.162Z,98852.75
2023-03-18T14:03:30.679Z,98856.26
2023-03-18T14:07:02.286Z,98849.28
2023-03-18T14:10:27.172Z,98848.47
2023-03-18T14:13:45.848Z,98844.58
2023-03-18T14:17:03.841Z,98850.93
2023-03-18T14:20:36.834Z,98848.89
2023-03-18T14:23:58.496Z,98845.39
2023-03-18T14:27:26.959Z,98832.91
2023-03-18T14:31:04.837Z,98832.06
2023-03-18T14:34:43.847Z,98824.91
2023-03-18T14:38:12.461Z,98814.85
2023-03-18T14:41:34.172Z,98824.32
2023-03-18T14:44:57.977Z,98818.78
2023-03-18T14:48:22.244Z,98816.75
2023-03-18T14:51:43.037Z,98818.19
2023-03-18T14:55:02.481Z,98822.50
2023-03-18T14:58:29.000Z,98815.52
2023-03-18T15:01:51.438Z,98817.38
2023-03-18T15:05:11.673Z,98821.03
2023-03-18T15:08:46.830Z,98811.59
2023-03-18T15:11:56.677Z,98812.43
2023-03-18T15:15:25.243Z,98818.78
2023-03-18T15:18:45.335Z,98809.95
2023-03-18T15:22:08.753Z,98805.66
2023-03-18T15:25:29.654Z,98817.34
2023-03-18T15:28:45.905Z,98810.36
2023-03-18T15:32:13.700Z,98813.83
2023-03-18T15:41:00.637Z,98815.61
2023-03-18T15:44:25.368Z,98812.34
2023-03-18T15:47:43.236Z,98811.28
2023-03-18T15:51:09.965Z,98809.20
2023-03-18T15:54:31.585Z,98811.45
2023-03-18T15:57:50.143Z,98812.84
2023-03-18T16:01:07.449Z,98816.72
2023-03-18T16:04:26.860Z,98819.16
2023-03-18T16:07:42.948Z,98816.70
2023-03-18T16:11:05.075Z,98808.28
2023-03-18T16:14:26.737Z,98827.13
2023-03-18T16:17:46.695Z,98819.95
2023-03-18T16:21:03.289Z,98830.38
2023-03-18T16:24:19.378Z,98831.80
2023-03-18T16:27:42.749Z,98835.85
2023-03-18T16:31:01.746Z,98830.30
2023-03-18T16:34:24.015Z,98830.88
2023-03-18T16:37:40.217Z,98823.70
2023-03-18T16:40:56.848Z,98826.27
2023-03-18T16:44:20.241Z,98826.91
2023-03-18T16:47:37.739Z,98826.30
2023-03-18T16:50:57.478Z,98827.58
2023-03-18T16:54:27.196Z,98819.00
2023-03-18T16:57:44.300Z,98818.95
2023-03-18T17:01:00.811Z,98823.05
2023-03-18T17:04:30.307Z,98827.38
2023-03-18T17:07:46.551Z,98822.28
2023-03-18T17:11:06.179Z,98827.13
2023-03-18T17:14:35.773Z,98818.98
2023-03-18T17:17:53.828Z,98825.93
2023-03-18T17:21:10.274Z,98817.48
2023-03-18T17:24:26.672Z,98815.28
2023-03-18T17:27:48.341Z,98825.16
2023-03-18T17:31:05.052Z,98825.77
2023-03-18T17:34:23.435Z,98831.12
2023-03-18T17:37:39.505Z,98816.11
2023-03-18T17:40:56.522Z,98823.11
2023-03-18T17:44:31.446Z,98822.41
2023-03-18T17:47:48.357Z,98822.33
2023-03-18T17:51:07.986Z,98820.11
2023-03-18T17:54:27.871Z,98818.78
2023-03-18T17:57:44.610Z,98820.34
2023-03-18T18:01:02.135Z,98818.91
2023-03-18T18:04:25.548Z,98817.74
2023-03-18T18:07:41.667Z,98819.23
2023-03-18T18:11:00.120Z,98808.72
2023-03-18T18:14:25.776Z,98813.03
2023-03-18T18:17:42.234Z,98811.24
2023-03-18T18:21:04.950Z,98809.58
2023-03-18T18:24:28.429Z,98810.07
2023-03-18T18:27:45.059Z,98811.06
2023-03-18T18:31:03.713Z,98810.61
2023-03-18T18:34:22.061Z,98815.86
2023-03-18T18:37:40.927Z,98805.00
2023-03-18T18:40:58.306Z,98813.75
2023-03-18T18:44:19.874Z,98822.98
2023-03-18T18:47:34.082Z,98831.56
2023-03-18T18:50:51.046Z,98829.10
2023-03-18T18:54:09.195Z,98831.41
2023-03-18T18:57:34.082Z,98836.00
2023-03-18T19:00:51.262Z,98828.08
2023-03-18T19:04:08.605Z,98828.55
2023-03-18T19:07:27.282Z,98837.31
2023-03-18T19:10:46.558Z,98829.57
2023-03-18T19:14:11.259Z,98839.42
2023-03-18T19:17:30.523Z,98831.00
2023-03-18T19:20:49.038Z,98831.98
2023-03-18T19:24:09.076Z,98838.41
2023-03-18T19:27:32.354Z,98837.73
2023-03-18T19:30:48.619Z,98841.69
2023-03-18T19:34:08.221Z,98834.58
2023-03-18T19:37:30.104Z,98846.78
2023-03-18T19:40:49.562Z,98844.73
2023-03-18T19:44:17.705Z,98849.67
2023-03-18T19:47:36.803Z,98843.80
2023-03-18T19:50:55.507Z,98846.38
2023-03-18T19:54:36.331Z,98852.97
2023-03-18T19:57:55.036Z,98852.91
2023-03-18T20:01:11.368Z,98852.84
2023-03-18T20:04:31.501Z,98850.85
2023-03-18T20:07:48.155Z,98864.41
2023-03-18T20:11:04.646Z,98857.97
2023-03-18T20:14:35.750Z,98862.55
2023-03-18T20:17:55.406Z,98862.09
2023-03-18T20:21:14.451Z,98865.09
2023-03-18T20:24:36.024Z,98862.46
2023-03-18T20:27:54.328Z,98871.59
2023-03-18T20:31:12.677Z,98866.56
2023-03-18T20:34:29.783Z,98868.72
2023-03-18T20:37:47.218Z,98867.98
2023-03-18T20:41:06.309Z,98865.36
2023-03-18T20:44:22.496Z,98872.95
2023-03-18T20:47:39.305Z,98868.21
2023-03-18T20:50:56.778Z,98871.36
2023-03-18T20:54:23.958Z,98871.20
2023-03-18T20:57:48.958Z,98884.92
2023-03-18T21:01:06.845Z,98878.59
2023-03-18T21:04:23.933Z,98886.66
2023-03-18T21:07:41.425Z,98890.27
2023-03-18T21:11:02.094Z,98886.80
2023-03-18T21:14:23.510Z,98899.53
2023-03-18T21:17:42.044Z,98891.54
2023-03-18T21:20:58.670Z,98891.88
2023-03-18T21:24:32.441Z,98894.64
2023-03-18T21:27:48.971Z,98890.50
2023-03-18T21:31:06.819Z,98898.72
2023-03-18T21:34:28.586Z,98897.49
2023-03-18T21:37:45.904Z,98902.09
2023-03-18T21:41:05.478Z,98902.47
2023-03-18T21:44:21.731Z,98901.50
2023-03-18T21:47:37.933Z,98910.70
2023-03-18T21:50:57.649Z,98908.53
2023-03-18T21:54:24.915Z,98900.69
2023-03-18T21:57:43.827Z,98904.56
2023-03-18T22:01:06.064Z,98897.87
2023-03-18T22:04:23.115Z,98895.70
2023-03-18T22:07:40.133Z,98893.80
2023-03-18T22:10:58.746Z,98895.70
2023-03-18T22:14:16.810Z,98888.93
2023-03-18T22:17:38.479Z,98890.83
2023-03-18T22:20:56.157Z,98893.84
2023-03-18T22:24:14.910Z,98892.95
2023-03-18T22:27:33.970Z,98903.41
2023-03-18T22:30:52.829Z,98910.02
2023-03-18T22:34:09.371Z,98900.92
2023-03-18T22:37:29.764Z,98903.97
2023-03-18T22:40:47.697Z,98905.66
2023-03-18T22:44:07.134Z,98901.92
2023-03-18T22:47:26.675Z,98903.73
2023-03-18T22:50:42.246Z,98902.22
2023-03-18T22:54:00.423Z,98912.85
2023-03-18T22:57:23.666Z,98913.25
2023-03-18T23:00:45.575Z,98920.74
2023-03-18T23:04:01.683Z,98914.68
2023-03-18T23:07:33.130Z,98920.77
2023-03-18T23:10:50.571Z,98919.11
2023-03-18T23:14:07.355Z,98924.07
2023-03-18T23:17:27.488Z,98931.41
2023-03-18T23:20:44.861Z,98927.40
2023-03-18T23:24:01.578Z,98924.61
2023-03-18T23:27:18.257Z,98921.03
2023-03-18T23:30:34.640Z,98920.20
2023-03-18T23:33:51.359Z,98925.19
2023-03-18T23:37:07.936Z,98927.11
2023-03-18T23:40:24.736Z,98921.05
2023-03-18T23:43:41.132Z,98924.63
2023-03-18T23:46:58.218Z,98919.74
2023-03-18T23:50:17.824Z,98915.99
2023-03-18T23:53:34.455Z,98917.94
2023-03-18T23:56:51.491Z,98915.99
